sensor_id;sensor_type;location;lat;lon;timestamp;P1;durP1;ratioP1;P2;durP2;ratioP2
61806;SDS011;47726;52.766;6.606;2022-09-21T00:00:38;2.13;;;1.50;;
61806;SDS011;47726;52.766;6.606;2022-09-21T00:03:04;2.58;;;1.70;;
61806;SDS011;47726;52.766;6.606;2022-09-21T00:05:30;3.08;;;1.60;;
61806;SDS011;47726;52.766;6.606;2022-09-21T00:08:00;2.30;;;1.70;;
61806;SDS011;47726;52.766;6.606;2022-09-21T00:10:27;3.35;;;1.70;;
61806;SDS011;47726;52.766;6.606;2022-09-21T00:12:53;2.75;;;1.50;;
61806;SDS011;47726;52.766;6.606;2022-09-21T00:15:20;4.05;;;1.67;;
61806;SDS011;47726;52.766;6.606;2022-09-21T00:17:46;1.60;;;1.50;;
61806;SDS011;47726;52.766;6.606;2022-09-21T00:20:12;3.45;;;1.85;;
61806;SDS011;47726;52.766;6.606;2022-09-21T00:22:39;3.97;;;1.77;;
61806;SDS011;47726;52.766;6.606;2022-09-21T00:25:06;3.47;;;1.80;;
61806;SDS011;47726;52.766;6.606;2022-09-21T00:27:33;2.70;;;1.80;;
61806;SDS011;47726;52.766;6.606;2022-09-21T00:29:59;2.95;;;1.92;;
61806;SDS011;47726;52.766;6.606;2022-09-21T00:32:27;2.33;;;1.80;;
61806;SDS011;47726;52.766;6.606;2022-09-21T00:34:55;1.98;;;1.73;;
61806;SDS011;47726;52.766;6.606;2022-09-21T00:37:22;2.08;;;1.70;;
61806;SDS011;47726;52.766;6.606;2022-09-21T00:39:48;2.63;;;1.80;;
61806;SDS011;47726;52.766;6.606;2022-09-21T00:42:19;2.78;;;1.70;;
61806;SDS011;47726;52.766;6.606;2022-09-21T00:44:46;2.33;;;1.65;;
61806;SDS011;47726;52.766;6.606;2022-09-21T00:47:13;3.95;;;1.60;;
61806;SDS011;47726;52.766;6.606;2022-09-21T00:49:42;3.03;;;1.80;;
61806;SDS011;47726;52.766;6.606;2022-09-21T00:52:13;3.75;;;1.83;;
61806;SDS011;47726;52.766;6.606;2022-09-21T00:54:55;1.80;;;1.70;;
61806;SDS011;47726;52.766;6.606;2022-09-21T00:57:26;3.25;;;1.90;;
61806;SDS011;47726;52.766;6.606;2022-09-21T00:59:55;3.25;;;1.88;;
61806;SDS011;47726;52.766;6.606;2022-09-21T01:02:25;3.35;;;1.90;;
61806;SDS011;47726;52.766;6.606;2022-09-21T01:04:52;3.08;;;2.13;;
61806;SDS011;47726;52.766;6.606;2022-09-21T01:07:21;3.15;;;1.80;;
61806;SDS011;47726;52.766;6.606;2022-09-21T01:09:51;5.45;;;2.05;;
61806;SDS011;47726;52.766;6.606;2022-09-21T01:12:33;2.88;;;1.73;;
61806;SDS011;47726;52.766;6.606;2022-09-21T01:18:01;2.13;;;1.80;;
61806;SDS011;47726;52.766;6.606;2022-09-21T01:34:37;3.55;;;2.30;;
61806;SDS011;47726;52.766;6.606;2022-09-21T01:37:10;3.70;;;2.20;;
61806;SDS011;47726;52.766;6.606;2022-09-21T01:39:44;5.00;;;2.17;;
61806;SDS011;47726;52.766;6.606;2022-09-21T01:42:13;4.05;;;2.25;;
61806;SDS011;47726;52.766;6.606;2022-09-21T01:44:41;4.47;;;2.22;;
61806;SDS011;47726;52.766;6.606;2022-09-21T01:47:10;5.53;;;2.60;;
61806;SDS011;47726;52.766;6.606;2022-09-21T01:49:37;4.88;;;2.30;;
61806;SDS011;47726;52.766;6.606;2022-09-21T01:52:38;4.18;;;2.20;;
61806;SDS011;47726;52.766;6.606;2022-09-21T01:55:12;4.03;;;2.40;;
61806;SDS011;47726;52.766;6.606;2022-09-21T02:03:11;4.55;;;2.35;;
61806;SDS011;47726;52.766;6.606;2022-09-21T02:05:43;3.65;;;2.30;;
61806;SDS011;47726;52.766;6.606;2022-09-21T02:08:09;6.38;;;2.40;;
61806;SDS011;47726;52.766;6.606;2022-09-21T02:10:36;4.28;;;2.30;;
61806;SDS011;47726;52.766;6.606;2022-09-21T02:13:08;2.97;;;2.20;;
61806;SDS011;47726;52.766;6.606;2022-09-21T02:15:49;4.20;;;2.40;;
61806;SDS011;47726;52.766;6.606;2022-09-21T02:21:06;2.83;;;2.50;;
61806;SDS011;47726;52.766;6.606;2022-09-21T02:26:47;3.40;;;2.35;;
61806;SDS011;47726;52.766;6.606;2022-09-21T02:29:46;3.72;;;2.60;;
61806;SDS011;47726;52.766;6.606;2022-09-21T02:32:24;3.28;;;2.50;;
61806;SDS011;47726;52.766;6.606;2022-09-21T02:37:48;3.15;;;2.22;;
61806;SDS011;47726;52.766;6.606;2022-09-21T02:43:08;3.53;;;2.25;;
61806;SDS011;47726;52.766;6.606;2022-09-21T02:45:40;4.63;;;2.42;;
61806;SDS011;47726;52.766;6.606;2022-09-21T02:48:16;2.53;;;2.30;;
61806;SDS011;47726;52.766;6.606;2022-09-21T02:50:49;4.43;;;2.20;;
61806;SDS011;47726;52.766;6.606;2022-09-21T02:53:18;2.47;;;2.28;;
61806;SDS011;47726;52.766;6.606;2022-09-21T02:55:48;4.28;;;2.10;;
61806;SDS011;47726;52.766;6.606;2022-09-21T02:58:15;2.13;;;1.90;;
61806;SDS011;47726;52.766;6.606;2022-09-21T03:00:43;2.00;;;1.90;;
61806;SDS011;47726;52.766;6.606;2022-09-21T03:03:13;3.95;;;2.25;;
61806;SDS011;47726;52.766;6.606;2022-09-21T03:05:44;2.15;;;1.90;;
61806;SDS011;47726;52.766;6.606;2022-09-21T03:08:11;3.00;;;2.20;;
61806;SDS011;47726;52.766;6.606;2022-09-21T03:10:37;2.67;;;1.90;;
61806;SDS011;47726;52.766;6.606;2022-09-21T03:13:04;3.70;;;2.00;;
61806;SDS011;47726;52.766;6.606;2022-09-21T03:15:34;4.45;;;1.92;;
61806;SDS011;47726;52.766;6.606;2022-09-21T03:18:01;2.33;;;1.98;;
61806;SDS011;47726;52.766;6.606;2022-09-21T03:20:29;3.60;;;1.90;;
61806;SDS011;47726;52.766;6.606;2022-09-21T03:22:58;2.33;;;1.90;;
61806;SDS011;47726;52.766;6.606;2022-09-21T03:25:25;2.53;;;2.00;;
61806;SDS011;47726;52.766;6.606;2022-09-21T03:27:51;1.98;;;1.85;;
61806;SDS011;47726;52.766;6.606;2022-09-21T03:30:18;3.13;;;1.95;;
61806;SDS011;47726;52.766;6.606;2022-09-21T03:32:47;2.75;;;1.98;;
61806;SDS011;47726;52.766;6.606;2022-09-21T03:35:14;3.55;;;2.10;;
61806;SDS011;47726;52.766;6.606;2022-09-21T03:37:40;2.80;;;2.15;;
61806;SDS011;47726;52.766;6.606;2022-09-21T03:40:06;3.03;;;2.30;;
61806;SDS011;47726;52.766;6.606;2022-09-21T03:42:32;6.32;;;2.22;;
61806;SDS011;47726;52.766;6.606;2022-09-21T03:44:58;3.08;;;2.28;;
61806;SDS011;47726;52.766;6.606;2022-09-21T03:47:23;3.28;;;2.40;;
61806;SDS011;47726;52.766;6.606;2022-09-21T03:49:49;2.92;;;2.40;;
61806;SDS011;47726;52.766;6.606;2022-09-21T03:52:14;5.15;;;2.42;;
61806;SDS011;47726;52.766;6.606;2022-09-21T03:54:40;2.78;;;2.03;;
61806;SDS011;47726;52.766;6.606;2022-09-21T03:57:06;3.38;;;2.10;;
61806;SDS011;47726;52.766;6.606;2022-09-21T03:59:32;3.95;;;2.25;;
61806;SDS011;47726;52.766;6.606;2022-09-21T04:01:59;5.60;;;2.25;;
61806;SDS011;47726;52.766;6.606;2022-09-21T04:04:25;3.55;;;2.10;;
61806;SDS011;47726;52.766;6.606;2022-09-21T04:06:50;3.35;;;1.90;;
61806;SDS011;47726;52.766;6.606;2022-09-21T04:09:16;2.60;;;2.17;;
61806;SDS011;47726;52.766;6.606;2022-09-21T04:11:43;3.25;;;2.10;;
61806;SDS011;47726;52.766;6.606;2022-09-21T04:14:10;2.83;;;2.20;;
61806;SDS011;47726;52.766;6.606;2022-09-21T04:16:36;2.38;;;2.10;;
61806;SDS011;47726;52.766;6.606;2022-09-21T04:19:01;2.80;;;2.20;;
61806;SDS011;47726;52.766;6.606;2022-09-21T04:21:27;2.83;;;2.10;;
61806;SDS011;47726;52.766;6.606;2022-09-21T04:23:53;3.72;;;2.20;;
61806;SDS011;47726;52.766;6.606;2022-09-21T04:26:24;2.55;;;2.30;;
61806;SDS011;47726;52.766;6.606;2022-09-21T04:28:51;2.90;;;2.40;;
61806;SDS011;47726;52.766;6.606;2022-09-21T04:31:18;2.53;;;2.30;;
61806;SDS011;47726;52.766;6.606;2022-09-21T04:33:46;4.13;;;2.65;;
61806;SDS011;47726;52.766;6.606;2022-09-21T04:36:13;3.03;;;2.40;;
61806;SDS011;47726;52.766;6.606;2022-09-21T04:38:39;3.72;;;2.58;;
61806;SDS011;47726;52.766;6.606;2022-09-21T04:41:04;3.97;;;2.63;;
61806;SDS011;47726;52.766;6.606;2022-09-21T04:43:30;4.72;;;2.55;;
61806;SDS011;47726;52.766;6.606;2022-09-21T04:45:56;4.82;;;2.40;;
61806;SDS011;47726;52.766;6.606;2022-09-21T04:48:22;3.03;;;2.30;;
61806;SDS011;47726;52.766;6.606;2022-09-21T04:50:48;5.05;;;2.50;;
61806;SDS011;47726;52.766;6.606;2022-09-21T04:53:14;3.88;;;2.50;;
61806;SDS011;47726;52.766;6.606;2022-09-21T04:55:40;3.33;;;2.47;;
61806;SDS011;47726;52.766;6.606;2022-09-21T04:58:05;2.88;;;2.33;;
61806;SDS011;47726;52.766;6.606;2022-09-21T05:00:31;3.00;;;2.63;;
61806;SDS011;47726;52.766;6.606;2022-09-21T05:02:56;2.92;;;2.33;;
61806;SDS011;47726;52.766;6.606;2022-09-21T05:05:22;3.60;;;2.50;;
61806;SDS011;47726;52.766;6.606;2022-09-21T05:07:47;6.13;;;2.80;;
61806;SDS011;47726;52.766;6.606;2022-09-21T05:10:13;4.13;;;2.70;;
61806;SDS011;47726;52.766;6.606;2022-09-21T05:12:39;4.47;;;2.67;;
61806;SDS011;47726;52.766;6.606;2022-09-21T05:15:06;3.90;;;2.60;;
61806;SDS011;47726;52.766;6.606;2022-09-21T05:17:32;6.40;;;2.55;;
61806;SDS011;47726;52.766;6.606;2022-09-21T05:19:58;5.38;;;2.55;;
61806;SDS011;47726;52.766;6.606;2022-09-21T05:22:23;6.30;;;2.60;;
61806;SDS011;47726;52.766;6.606;2022-09-21T05:24:49;6.18;;;2.50;;
61806;SDS011;47726;52.766;6.606;2022-09-21T05:27:14;3.47;;;2.60;;
61806;SDS011;47726;52.766;6.606;2022-09-21T05:29:40;4.55;;;2.50;;
61806;SDS011;47726;52.766;6.606;2022-09-21T05:37:20;2.60;;;2.40;;
61806;SDS011;47726;52.766;6.606;2022-09-21T05:40:14;3.17;;;2.58;;
61806;SDS011;47726;52.766;6.606;2022-09-21T05:42:40;4.13;;;2.50;;
61806;SDS011;47726;52.766;6.606;2022-09-21T05:45:06;6.10;;;2.78;;
61806;SDS011;47726;52.766;6.606;2022-09-21T05:47:37;3.65;;;2.65;;
61806;SDS011;47726;52.766;6.606;2022-09-21T05:50:19;6.50;;;2.88;;
61806;SDS011;47726;52.766;6.606;2022-09-21T05:53:00;4.88;;;2.50;;
61806;SDS011;47726;52.766;6.606;2022-09-21T05:55:57;5.13;;;2.67;;
61806;SDS011;47726;52.766;6.606;2022-09-21T06:01:40;6.30;;;2.72;;
61806;SDS011;47726;52.766;6.606;2022-09-21T06:04:16;4.15;;;2.63;;
61806;SDS011;47726;52.766;6.606;2022-09-21T06:06:42;3.17;;;2.88;;
61806;SDS011;47726;52.766;6.606;2022-09-21T06:09:07;3.55;;;2.65;;
61806;SDS011;47726;52.766;6.606;2022-09-21T06:11:33;4.78;;;3.00;;
61806;SDS011;47726;52.766;6.606;2022-09-21T06:13:59;3.95;;;2.97;;
61806;SDS011;47726;52.766;6.606;2022-09-21T06:16:26;3.92;;;2.90;;
61806;SDS011;47726;52.766;6.606;2022-09-21T06:19:00;4.25;;;3.05;;
61806;SDS011;47726;52.766;6.606;2022-09-21T06:21:25;4.82;;;2.80;;
61806;SDS011;47726;52.766;6.606;2022-09-21T06:23:51;3.88;;;2.85;;
61806;SDS011;47726;52.766;6.606;2022-09-21T06:26:16;4.15;;;2.67;;
61806;SDS011;47726;52.766;6.606;2022-09-21T06:28:42;4.70;;;2.80;;
61806;SDS011;47726;52.766;6.606;2022-09-21T06:31:07;3.00;;;2.65;;
61806;SDS011;47726;52.766;6.606;2022-09-21T06:33:33;2.67;;;2.47;;
61806;SDS011;47726;52.766;6.606;2022-09-21T06:36:01;6.47;;;2.80;;
61806;SDS011;47726;52.766;6.606;2022-09-21T06:38:27;5.80;;;2.50;;
61806;SDS011;47726;52.766;6.606;2022-09-21T06:40:53;6.93;;;2.75;;
61806;SDS011;47726;52.766;6.606;2022-09-21T06:43:19;9.55;;;2.72;;
61806;SDS011;47726;52.766;6.606;2022-09-21T06:45:52;5.40;;;2.50;;
61806;SDS011;47726;52.766;6.606;2022-09-21T06:48:22;8.65;;;2.80;;
61806;SDS011;47726;52.766;6.606;2022-09-21T06:50:48;6.88;;;3.15;;
61806;SDS011;47726;52.766;6.606;2022-09-21T06:53:15;7.57;;;3.20;;
61806;SDS011;47726;52.766;6.606;2022-09-21T06:55:41;5.40;;;2.72;;
61806;SDS011;47726;52.766;6.606;2022-09-21T06:58:06;7.80;;;3.05;;
61806;SDS011;47726;52.766;6.606;2022-09-21T07:00:32;5.72;;;3.28;;
61806;SDS011;47726;52.766;6.606;2022-09-21T07:02:57;7.00;;;3.67;;
61806;SDS011;47726;52.766;6.606;2022-09-21T07:05:23;5.93;;;3.47;;
61806;SDS011;47726;52.766;6.606;2022-09-21T07:07:49;3.88;;;2.80;;
61806;SDS011;47726;52.766;6.606;2022-09-21T07:10:15;4.70;;;3.10;;
61806;SDS011;47726;52.766;6.606;2022-09-21T07:12:41;6.45;;;3.40;;
61806;SDS011;47726;52.766;6.606;2022-09-21T07:15:07;5.55;;;3.40;;
61806;SDS011;47726;52.766;6.606;2022-09-21T07:17:34;7.30;;;3.40;;
61806;SDS011;47726;52.766;6.606;2022-09-21T07:20:02;5.60;;;3.00;;
61806;SDS011;47726;52.766;6.606;2022-09-21T07:22:29;5.65;;;2.90;;
61806;SDS011;47726;52.766;6.606;2022-09-21T07:24:59;6.72;;;3.38;;
61806;SDS011;47726;52.766;6.606;2022-09-21T07:27:24;8.68;;;3.00;;
61806;SDS011;47726;52.766;6.606;2022-09-21T07:29:52;8.80;;;3.30;;
61806;SDS011;47726;52.766;6.606;2022-09-21T07:32:17;5.18;;;2.67;;
61806;SDS011;47726;52.766;6.606;2022-09-21T07:34:43;7.07;;;2.90;;
61806;SDS011;47726;52.766;6.606;2022-09-21T07:37:10;6.50;;;2.70;;
61806;SDS011;47726;52.766;6.606;2022-09-21T07:39:36;4.55;;;2.63;;
61806;SDS011;47726;52.766;6.606;2022-09-21T07:42:03;6.45;;;2.65;;
61806;SDS011;47726;52.766;6.606;2022-09-21T07:44:29;6.40;;;2.60;;
61806;SDS011;47726;52.766;6.606;2022-09-21T07:46:54;3.05;;;2.20;;
61806;SDS011;47726;52.766;6.606;2022-09-21T07:49:20;7.45;;;2.58;;
61806;SDS011;47726;52.766;6.606;2022-09-21T07:51:46;4.53;;;2.40;;
61806;SDS011;47726;52.766;6.606;2022-09-21T07:54:11;4.05;;;2.40;;
61806;SDS011;47726;52.766;6.606;2022-09-21T07:56:37;7.88;;;2.28;;
61806;SDS011;47726;52.766;6.606;2022-09-21T07:59:03;5.53;;;2.30;;
61806;SDS011;47726;52.766;6.606;2022-09-21T08:01:36;4.60;;;2.30;;
61806;SDS011;47726;52.766;6.606;2022-09-21T08:04:04;6.15;;;2.42;;
61806;SDS011;47726;52.766;6.606;2022-09-21T08:06:31;3.35;;;2.30;;
61806;SDS011;47726;52.766;6.606;2022-09-21T08:08:59;6.07;;;2.05;;
61806;SDS011;47726;52.766;6.606;2022-09-21T08:11:25;4.53;;;1.92;;
61806;SDS011;47726;52.766;6.606;2022-09-21T08:13:52;4.25;;;1.90;;
61806;SDS011;47726;52.766;6.606;2022-09-21T08:16:19;9.07;;;2.15;;
61806;SDS011;47726;52.766;6.606;2022-09-21T08:18:44;6.53;;;1.92;;
61806;SDS011;47726;52.766;6.606;2022-09-21T08:21:10;5.13;;;2.15;;
61806;SDS011;47726;52.766;6.606;2022-09-21T08:23:36;5.75;;;2.13;;
61806;SDS011;47726;52.766;6.606;2022-09-21T08:26:06;4.88;;;2.03;;
61806;SDS011;47726;52.766;6.606;2022-09-21T08:28:34;7.40;;;2.15;;
61806;SDS011;47726;52.766;6.606;2022-09-21T08:31:04;5.03;;;2.05;;
61806;SDS011;47726;52.766;6.606;2022-09-21T08:33:34;4.32;;;1.60;;
61806;SDS011;47726;52.766;6.606;2022-09-21T08:36:00;5.80;;;1.70;;
61806;SDS011;47726;52.766;6.606;2022-09-21T08:38:30;3.97;;;1.63;;
61806;SDS011;47726;52.766;6.606;2022-09-21T08:40:57;6.70;;;1.80;;
61806;SDS011;47726;52.766;6.606;2022-09-21T08:43:30;5.15;;;1.58;;
61806;SDS011;47726;52.766;6.606;2022-09-21T08:46:02;3.67;;;1.60;;
61806;SDS011;47726;52.766;6.606;2022-09-21T08:48:38;5.18;;;1.73;;
61806;SDS011;47726;52.766;6.606;2022-09-21T08:51:08;4.38;;;1.40;;
61806;SDS011;47726;52.766;6.606;2022-09-21T08:53:37;5.72;;;1.60;;
61806;SDS011;47726;52.766;6.606;2022-09-21T08:56:09;5.40;;;1.65;;
61806;SDS011;47726;52.766;6.606;2022-09-21T08:58:36;6.85;;;1.83;;
61806;SDS011;47726;52.766;6.606;2022-09-21T09:14:42;6.10;;;1.55;;
61806;SDS011;47726;52.766;6.606;2022-09-21T09:17:33;5.25;;;1.60;;
61806;SDS011;47726;52.766;6.606;2022-09-21T09:20:26;4.43;;;1.67;;
61806;SDS011;47726;52.766;6.606;2022-09-21T09:23:01;3.58;;;1.40;;
61806;SDS011;47726;52.766;6.606;2022-09-21T09:25:40;5.97;;;1.85;;
61806;SDS011;47726;52.766;6.606;2022-09-21T09:30:59;5.78;;;1.67;;
61806;SDS011;47726;52.766;6.606;2022-09-21T09:33:43;7.13;;;1.77;;
61806;SDS011;47726;52.766;6.606;2022-09-21T09:36:30;6.90;;;1.90;;
61806;SDS011;47726;52.766;6.606;2022-09-21T09:38:59;4.20;;;1.50;;
61806;SDS011;47726;52.766;6.606;2022-09-21T09:42:29;7.18;;;1.58;;
61806;SDS011;47726;52.766;6.606;2022-09-21T09:53:04;4.57;;;1.70;;
61806;SDS011;47726;52.766;6.606;2022-09-21T09:55:37;5.00;;;1.83;;
61806;SDS011;47726;52.766;6.606;2022-09-21T09:58:08;5.95;;;1.40;;
61806;SDS011;47726;52.766;6.606;2022-09-21T10:01:01;4.97;;;1.75;;
61806;SDS011;47726;52.766;6.606;2022-09-21T10:03:27;3.80;;;1.30;;
61806;SDS011;47726;52.766;6.606;2022-09-21T10:05:53;5.53;;;1.80;;
61806;SDS011;47726;52.766;6.606;2022-09-21T10:11:12;7.32;;;1.60;;
61806;SDS011;47726;52.766;6.606;2022-09-21T10:13:44;4.47;;;1.80;;
61806;SDS011;47726;52.766;6.606;2022-09-21T10:18:57;5.13;;;1.67;;
61806;SDS011;47726;52.766;6.606;2022-09-21T10:26:49;4.70;;;1.50;;
61806;SDS011;47726;52.766;6.606;2022-09-21T10:31:53;5.50;;;1.48;;
61806;SDS011;47726;52.766;6.606;2022-09-21T10:34:24;5.78;;;1.70;;
61806;SDS011;47726;52.766;6.606;2022-09-21T10:36:52;6.05;;;1.65;;
61806;SDS011;47726;52.766;6.606;2022-09-21T10:39:44;4.45;;;1.65;;
61806;SDS011;47726;52.766;6.606;2022-09-21T10:42:12;4.65;;;1.48;;
61806;SDS011;47726;52.766;6.606;2022-09-21T10:44:44;4.47;;;1.38;;
61806;SDS011;47726;52.766;6.606;2022-09-21T10:47:20;4.93;;;1.40;;
61806;SDS011;47726;52.766;6.606;2022-09-21T10:49:53;5.50;;;1.50;;
61806;SDS011;47726;52.766;6.606;2022-09-21T10:52:21;6.70;;;1.52;;
61806;SDS011;47726;52.766;6.606;2022-09-21T10:54:50;3.42;;;1.30;;
61806;SDS011;47726;52.766;6.606;2022-09-21T10:57:18;3.15;;;1.27;;
61806;SDS011;47726;52.766;6.606;2022-09-21T10:59:46;5.05;;;1.50;;
61806;SDS011;47726;52.766;6.606;2022-09-21T11:04:58;5.10;;;1.45;;
61806;SDS011;47726;52.766;6.606;2022-09-21T11:07:36;3.25;;;1.20;;
61806;SDS011;47726;52.766;6.606;2022-09-21T11:12:57;3.67;;;1.10;;
61806;SDS011;47726;52.766;6.606;2022-09-21T11:18:47;3.55;;;1.08;;
61806;SDS011;47726;52.766;6.606;2022-09-21T11:24:03;4.00;;;1.20;;
61806;SDS011;47726;52.766;6.606;2022-09-21T11:29:23;5.55;;;1.33;;
61806;SDS011;47726;52.766;6.606;2022-09-21T11:37:49;3.45;;;1.20;;
61806;SDS011;47726;52.766;6.606;2022-09-21T11:43:19;3.50;;;1.10;;
61806;SDS011;47726;52.766;6.606;2022-09-21T11:56:48;7.68;;;1.90;;
61806;SDS011;47726;52.766;6.606;2022-09-21T11:59:27;4.97;;;1.48;;
61806;SDS011;47726;52.766;6.606;2022-09-21T12:02:25;4.50;;;1.20;;
61806;SDS011;47726;52.766;6.606;2022-09-21T12:08:10;15.07;;;2.30;;
61806;SDS011;47726;52.766;6.606;2022-09-21T12:13:39;6.30;;;1.40;;
61806;SDS011;47726;52.766;6.606;2022-09-21T12:18:51;5.28;;;1.58;;
61806;SDS011;47726;52.766;6.606;2022-09-21T12:21:26;5.47;;;1.40;;
61806;SDS011;47726;52.766;6.606;2022-09-21T12:23:56;4.10;;;1.40;;
61806;SDS011;47726;52.766;6.606;2022-09-21T12:26:32;4.43;;;1.30;;
61806;SDS011;47726;52.766;6.606;2022-09-21T12:29:21;3.63;;;1.17;;
61806;SDS011;47726;52.766;6.606;2022-09-21T12:34:26;4.32;;;1.20;;
61806;SDS011;47726;52.766;6.606;2022-09-21T12:37:16;4.10;;;1.30;;
61806;SDS011;47726;52.766;6.606;2022-09-21T12:40:04;5.53;;;1.50;;
61806;SDS011;47726;52.766;6.606;2022-09-21T12:42:42;3.95;;;1.30;;
61806;SDS011;47726;52.766;6.606;2022-09-21T12:48:02;5.13;;;1.10;;
61806;SDS011;47726;52.766;6.606;2022-09-21T12:53:15;5.15;;;1.50;;
61806;SDS011;47726;52.766;6.606;2022-09-21T12:58:23;5.65;;;1.40;;
61806;SDS011;47726;52.766;6.606;2022-09-21T13:01:17;5.50;;;1.50;;
61806;SDS011;47726;52.766;6.606;2022-09-21T13:09:16;2.40;;;1.10;;
61806;SDS011;47726;52.766;6.606;2022-09-21T13:11:57;10.23;;;1.80;;
61806;SDS011;47726;52.766;6.606;2022-09-21T13:14:29;4.50;;;1.38;;
61806;SDS011;47726;52.766;6.606;2022-09-21T13:17:00;6.13;;;1.40;;
61806;SDS011;47726;52.766;6.606;2022-09-21T13:19:29;4.28;;;1.38;;
61806;SDS011;47726;52.766;6.606;2022-09-21T13:22:08;4.20;;;1.20;;
61806;SDS011;47726;52.766;6.606;2022-09-21T13:24:46;5.18;;;1.05;;
61806;SDS011;47726;52.766;6.606;2022-09-21T13:30:43;5.40;;;1.50;;
61806;SDS011;47726;52.766;6.606;2022-09-21T13:43:45;4.15;;;1.20;;
61806;SDS011;47726;52.766;6.606;2022-09-21T13:54:37;2.30;;;1.10;;
61806;SDS011;47726;52.766;6.606;2022-09-21T14:02:35;5.32;;;1.38;;
61806;SDS011;47726;52.766;6.606;2022-09-21T14:07:51;2.78;;;0.82;;
61806;SDS011;47726;52.766;6.606;2022-09-21T14:10:25;4.50;;;1.20;;
61806;SDS011;47726;52.766;6.606;2022-09-21T14:12:53;4.63;;;1.13;;
61806;SDS011;47726;52.766;6.606;2022-09-21T14:17:45;4.88;;;1.33;;
61806;SDS011;47726;52.766;6.606;2022-09-21T14:26:35;3.85;;;1.25;;
61806;SDS011;47726;52.766;6.606;2022-09-21T14:29:23;4.00;;;1.20;;
61806;SDS011;47726;52.766;6.606;2022-09-21T14:31:58;4.25;;;1.25;;
61806;SDS011;47726;52.766;6.606;2022-09-21T14:34:29;5.13;;;1.40;;
61806;SDS011;47726;52.766;6.606;2022-09-21T14:37:00;4.00;;;1.15;;
61806;SDS011;47726;52.766;6.606;2022-09-21T14:39:36;3.05;;;1.20;;
61806;SDS011;47726;52.766;6.606;2022-09-21T14:42:10;3.58;;;1.27;;
61806;SDS011;47726;52.766;6.606;2022-09-21T14:44:39;2.72;;;1.02;;
61806;SDS011;47726;52.766;6.606;2022-09-21T15:07:03;5.13;;;1.40;;
61806;SDS011;47726;52.766;6.606;2022-09-21T15:15:22;3.80;;;1.15;;
61806;SDS011;47726;52.766;6.606;2022-09-21T15:18:00;2.85;;;1.20;;
61806;SDS011;47726;52.766;6.606;2022-09-21T15:20:28;4.85;;;1.25;;
61806;SDS011;47726;52.766;6.606;2022-09-21T15:22:56;4.30;;;1.23;;
61806;SDS011;47726;52.766;6.606;2022-09-21T15:25:27;2.45;;;1.00;;
61806;SDS011;47726;52.766;6.606;2022-09-21T15:27:56;4.07;;;1.30;;
61806;SDS011;47726;52.766;6.606;2022-09-21T15:30:23;2.85;;;1.10;;
61806;SDS011;47726;52.766;6.606;2022-09-21T15:32:58;3.95;;;1.10;;
61806;SDS011;47726;52.766;6.606;2022-09-21T15:35:28;4.28;;;1.10;;
61806;SDS011;47726;52.766;6.606;2022-09-21T15:37:57;2.67;;;1.00;;
61806;SDS011;47726;52.766;6.606;2022-09-21T15:40:34;3.58;;;1.10;;
61806;SDS011;47726;52.766;6.606;2022-09-21T15:46:08;3.55;;;1.10;;
61806;SDS011;47726;52.766;6.606;2022-09-21T15:54:40;4.65;;;1.40;;
61806;SDS011;47726;52.766;6.606;2022-09-21T16:03:44;4.22;;;1.20;;
61806;SDS011;47726;52.766;6.606;2022-09-21T16:06:24;3.58;;;1.20;;
61806;SDS011;47726;52.766;6.606;2022-09-21T16:09:46;3.03;;;1.27;;
61806;SDS011;47726;52.766;6.606;2022-09-21T16:11:55;3.38;;;1.20;;
61806;SDS011;47726;52.766;6.606;2022-09-21T16:15:37;4.35;;;1.13;;
61806;SDS011;47726;52.766;6.606;2022-09-21T16:17:52;4.53;;;1.10;;
61806;SDS011;47726;52.766;6.606;2022-09-21T16:20:35;4.88;;;1.50;;
61806;SDS011;47726;52.766;6.606;2022-09-21T16:23:05;15.02;;;4.88;;
61806;SDS011;47726;52.766;6.606;2022-09-21T16:25:52;10.02;;;3.00;;
61806;SDS011;47726;52.766;6.606;2022-09-21T16:28:38;8.93;;;2.50;;
61806;SDS011;47726;52.766;6.606;2022-09-21T16:31:22;10.82;;;3.03;;
61806;SDS011;47726;52.766;6.606;2022-09-21T16:33:56;8.82;;;2.70;;
61806;SDS011;47726;52.766;6.606;2022-09-21T16:36:35;9.73;;;3.30;;
61806;SDS011;47726;52.766;6.606;2022-09-21T16:39:02;9.43;;;2.50;;
61806;SDS011;47726;52.766;6.606;2022-09-21T16:41:32;10.00;;;2.67;;
61806;SDS011;47726;52.766;6.606;2022-09-21T16:44:28;5.43;;;2.00;;
61806;SDS011;47726;52.766;6.606;2022-09-21T16:46:58;7.22;;;2.05;;
61806;SDS011;47726;52.766;6.606;2022-09-21T16:49:27;5.82;;;1.98;;
61806;SDS011;47726;52.766;6.606;2022-09-21T16:51:56;6.32;;;1.90;;
61806;SDS011;47726;52.766;6.606;2022-09-21T16:54:23;4.80;;;1.80;;
61806;SDS011;47726;52.766;6.606;2022-09-21T16:56:51;4.35;;;1.40;;
61806;SDS011;47726;52.766;6.606;2022-09-21T16:59:22;4.25;;;1.60;;
61806;SDS011;47726;52.766;6.606;2022-09-21T17:01:49;5.97;;;1.63;;
61806;SDS011;47726;52.766;6.606;2022-09-21T17:04:17;4.65;;;1.73;;
61806;SDS011;47726;52.766;6.606;2022-09-21T17:06:43;5.13;;;1.70;;
61806;SDS011;47726;52.766;6.606;2022-09-21T17:09:15;4.55;;;1.60;;
61806;SDS011;47726;52.766;6.606;2022-09-21T17:11:43;5.30;;;1.60;;
61806;SDS011;47726;52.766;6.606;2022-09-21T17:14:12;3.92;;;1.42;;
61806;SDS011;47726;52.766;6.606;2022-09-21T17:16:43;3.22;;;1.35;;
61806;SDS011;47726;52.766;6.606;2022-09-21T17:19:10;3.17;;;1.45;;
61806;SDS011;47726;52.766;6.606;2022-09-21T17:21:35;3.42;;;1.52;;
61806;SDS011;47726;52.766;6.606;2022-09-21T17:24:02;4.32;;;1.55;;
61806;SDS011;47726;52.766;6.606;2022-09-21T17:26:28;4.88;;;1.50;;
61806;SDS011;47726;52.766;6.606;2022-09-21T17:28:54;3.72;;;1.63;;
61806;SDS011;47726;52.766;6.606;2022-09-21T17:31:20;3.78;;;1.42;;
61806;SDS011;47726;52.766;6.606;2022-09-21T17:33:47;3.67;;;1.30;;
61806;SDS011;47726;52.766;6.606;2022-09-21T17:36:15;4.60;;;1.70;;
61806;SDS011;47726;52.766;6.606;2022-09-21T17:38:42;4.38;;;1.52;;
61806;SDS011;47726;52.766;6.606;2022-09-21T17:47:31;4.95;;;2.70;;
61806;SDS011;47726;52.766;6.606;2022-09-21T17:49:33;5.30;;;2.75;;
61806;SDS011;47726;52.766;6.606;2022-09-21T17:51:59;7.20;;;3.00;;
61806;SDS011;47726;52.766;6.606;2022-09-21T17:54:44;6.85;;;2.90;;
61806;SDS011;47726;52.766;6.606;2022-09-21T17:59:52;5.47;;;2.47;;
61806;SDS011;47726;52.766;6.606;2022-09-21T18:02:26;5.43;;;2.50;;
61806;SDS011;47726;52.766;6.606;2022-09-21T18:04:52;7.93;;;2.38;;
61806;SDS011;47726;52.766;6.606;2022-09-21T18:07:25;3.40;;;2.10;;
61806;SDS011;47726;52.766;6.606;2022-09-21T18:09:51;4.95;;;2.38;;
61806;SDS011;47726;52.766;6.606;2022-09-21T18:15:13;4.22;;;1.77;;
61806;SDS011;47726;52.766;6.606;2022-09-21T18:21:04;3.00;;;1.67;;
61806;SDS011;47726;52.766;6.606;2022-09-21T18:26:55;5.35;;;1.88;;
61806;SDS011;47726;52.766;6.606;2022-09-21T18:35:08;4.40;;;1.85;;
61806;SDS011;47726;52.766;6.606;2022-09-21T18:37:52;4.97;;;2.20;;
61806;SDS011;47726;52.766;6.606;2022-09-21T18:46:22;4.60;;;1.88;;
61806;SDS011;47726;52.766;6.606;2022-09-21T18:49:08;4.65;;;1.98;;
61806;SDS011;47726;52.766;6.606;2022-09-21T18:51:55;3.33;;;1.80;;
61806;SDS011;47726;52.766;6.606;2022-09-21T18:54:32;6.32;;;2.00;;
61806;SDS011;47726;52.766;6.606;2022-09-21T18:56:58;4.68;;;1.90;;
61806;SDS011;47726;52.766;6.606;2022-09-21T18:59:24;4.20;;;1.80;;
61806;SDS011;47726;52.766;6.606;2022-09-21T19:01:50;5.57;;;2.03;;
61806;SDS011;47726;52.766;6.606;2022-09-21T19:04:17;6.55;;;1.90;;
61806;SDS011;47726;52.766;6.606;2022-09-21T19:06:51;6.45;;;1.80;;
61806;SDS011;47726;52.766;6.606;2022-09-21T19:18:24;7.10;;;1.90;;
61806;SDS011;47726;52.766;6.606;2022-09-21T19:21:07;3.55;;;1.83;;
61806;SDS011;47726;52.766;6.606;2022-09-21T19:29:41;6.15;;;2.00;;
61806;SDS011;47726;52.766;6.606;2022-09-21T19:32:17;3.90;;;1.75;;
61806;SDS011;47726;52.766;6.606;2022-09-21T19:35:11;4.53;;;2.00;;